createdAt,value
2018-07-25T00:01:02.986Z,17.47
2018-07-25T00:03:35.029Z,17.42
2018-07-25T00:06:08.503Z,17.41
2018-07-25T00:08:37.390Z,17.39
2018-07-25T00:11:06.131Z,17.37
2018-07-25T00:13:34.965Z,17.36
2018-07-25T00:16:04.006Z,17.36
2018-07-25T00:18:35.474Z,17.35
2018-07-25T00:21:08.648Z,17.33
2018-07-25T00:23:39.880Z,17.30
2018-07-25T00:26:08.917Z,17.24
2018-07-25T00:28:37.806Z,17.19
2018-07-25T00:31:06.592Z,17.13
2018-07-25T00:33:35.578Z,17.10
2018-07-25T00:36:11.784Z,17.07
2018-07-25T00:38:43.956Z,17.10
2018-07-25T00:41:15.547Z,17.10
2018-07-25T00:43:44.371Z,17.08
2018-07-25T00:46:13.159Z,17.06
2018-07-25T00:48:41.971Z,17.06
2018-07-25T00:51:11.170Z,17.05
2018-07-25T00:53:44.905Z,17.07
2018-07-25T00:56:15.551Z,17.05
2018-07-25T00:58:48.136Z,17.02
2018-07-25T01:01:17.083Z,17.01
2018-07-25T01:03:45.926Z,17.02
2018-07-25T01:06:14.834Z,17.01
2018-07-25T01:08:43.950Z,16.99
2018-07-25T01:11:19.836Z,16.95
2018-07-25T01:13:51.840Z,16.96
2018-07-25T01:16:27.787Z,16.93
2018-07-25T01:18:56.628Z,16.89
2018-07-25T01:21:25.523Z,16.87
2018-07-25T01:23:54.497Z,16.83
2018-07-25T01:26:25.266Z,16.82
2018-07-25T01:28:56.500Z,16.79
2018-07-25T01:31:28.879Z,16.75
2018-07-25T01:34:00.411Z,16.75
2018-07-25T01:36:29.261Z,16.74
2018-07-25T01:38:58.109Z,16.68
2018-07-25T01:41:27.006Z,16.68
2018-07-25T01:43:59.622Z,16.64
2018-07-25T01:46:31.942Z,16.63
2018-07-25T01:49:04.503Z,16.61
2018-07-25T01:51:36.290Z,16.58
2018-07-25T01:54:05.169Z,16.58
2018-07-25T01:56:34.987Z,16.58
2018-07-25T01:59:03.930Z,16.53
2018-07-25T02:01:36.807Z,16.62
2018-07-25T02:04:07.763Z,16.65
2018-07-25T02:06:39.686Z,16.66
2018-07-25T02:09:12.468Z,16.68
2018-07-25T02:11:41.399Z,16.70
2018-07-25T02:14:10.409Z,16.72
2018-07-25T02:16:39.440Z,16.75
2018-07-25T02:19:11.729Z,16.77
2018-07-25T02:21:44.323Z,16.79
2018-07-25T02:24:15.437Z,16.81
2018-07-25T02:26:47.195Z,16.81
2018-07-25T02:29:16.110Z,16.78
2018-07-25T02:31:45.058Z,16.79
2018-07-25T02:34:19.181Z,16.84
2018-07-25T02:36:52.498Z,16.84
2018-07-25T02:39:23.305Z,16.86
2018-07-25T02:41:59.549Z,16.87
2018-07-25T02:44:28.435Z,16.89
2018-07-25T02:46:57.357Z,16.90
2018-07-25T02:49:26.196Z,16.90
2018-07-25T02:51:55.617Z,16.90
2018-07-25T02:54:28.710Z,16.87
2018-07-25T02:57:00.416Z,16.86
2018-07-25T02:59:32.806Z,16.87
2018-07-25T03:02:01.753Z,16.88
2018-07-25T03:04:30.606Z,16.88
2018-07-25T03:06:59.432Z,16.87
2018-07-25T03:09:28.639Z,16.86
2018-07-25T03:11:58.949Z,16.87
2018-07-25T03:14:30.890Z,16.84
2018-07-25T03:17:02.803Z,16.84
2018-07-25T03:19:31.799Z,16.83
2018-07-25T03:22:00.693Z,16.84
2018-07-25T03:24:29.606Z,16.83
2018-07-25T03:26:58.852Z,16.84
2018-07-25T03:29:31.893Z,16.85
2018-07-25T03:32:06.911Z,16.87
2018-07-25T03:34:40.822Z,16.88
2018-07-25T03:37:09.738Z,16.87
2018-07-25T03:39:38.866Z,16.87
2018-07-25T03:42:07.826Z,16.87
2018-07-25T03:44:38.241Z,16.88
2018-07-25T03:47:13.074Z,16.89
2018-07-25T03:49:51.976Z,16.85
2018-07-25T03:52:28.012Z,16.86
2018-07-25T03:54:56.826Z,16.87
2018-07-25T03:57:25.642Z,16.86
2018-07-25T03:59:54.501Z,16.85
2018-07-25T04:02:29.021Z,16.86
2018-07-25T04:05:00.981Z,16.87
2018-07-25T04:07:32.700Z,16.86
2018-07-25T04:10:04.662Z,16.84
2018-07-25T04:12:33.627Z,16.82
2018-07-25T04:15:02.422Z,16.81
2018-07-25T04:17:36.411Z,16.79
2018-07-25T04:20:14.914Z,16.80
2018-07-25T04:22:48.466Z,16.78
2018-07-25T04:25:23.072Z,16.74
2018-07-25T04:27:53.681Z,16.75
2018-07-25T04:30:23.332Z,16.72
2018-07-25T04:32:52.194Z,16.69
2018-07-25T04:35:21.194Z,16.71
2018-07-25T04:37:52.958Z,16.68
2018-07-25T04:40:24.243Z,16.70
2018-07-25T04:42:56.446Z,16.66
2018-07-25T04:45:25.404Z,16.65
2018-07-25T04:47:54.174Z,16.62
2018-07-25T04:50:23.066Z,16.60
2018-07-25T04:52:52.273Z,16.57
2018-07-25T04:55:29.124Z,16.55
2018-07-25T04:58:13.084Z,16.54
2018-07-25T05:00:54.979Z,16.53
2018-07-25T05:03:23.843Z,16.51
2018-07-25T05:05:52.666Z,16.48
2018-07-25T05:08:21.574Z,16.44
2018-07-25T05:10:55.612Z,16.41
2018-07-25T05:13:28.079Z,16.39
2018-07-25T05:16:03.799Z,16.39
2018-07-25T05:18:36.492Z,16.37
2018-07-25T05:21:05.376Z,16.37
2018-07-25T05:23:34.259Z,16.34
2018-07-25T05:26:03.324Z,16.35
2018-07-25T05:28:36.951Z,16.35
2018-07-25T05:31:07.804Z,16.33
2018-07-25T05:33:39.951Z,16.37
2018-07-25T05:36:12.904Z,16.39
2018-07-25T05:38:41.846Z,16.40
2018-07-25T05:41:10.718Z,16.39
2018-07-25T05:43:39.672Z,16.39
2018-07-25T05:46:13.104Z,16.40
2018-07-25T05:48:44.479Z,16.40
2018-07-25T05:51:16.497Z,16.42
2018-07-25T05:53:46.755Z,16.44
2018-07-25T05:56:15.679Z,16.47
2018-07-25T05:58:44.623Z,16.50
2018-07-25T06:01:13.690Z,16.52
2018-07-25T06:03:46.866Z,16.56
2018-07-25T06:06:19.973Z,16.60
2018-07-25T06:08:52.102Z,16.62
2018-07-25T06:11:20.995Z,16.63
2018-07-25T06:13:49.844Z,16.62
2018-07-25T06:16:19.229Z,16.69
2018-07-25T06:18:48.799Z,16.73
2018-07-25T06:21:27.077Z,16.74
2018-07-25T06:24:03.004Z,16.83
2018-07-25T06:26:37.035Z,16.88
2018-07-25T06:29:05.858Z,16.90
2018-07-25T06:31:34.743Z,16.92
2018-07-25T06:34:03.520Z,16.95
2018-07-25T06:36:32.943Z,17.00
2018-07-25T06:39:05.440Z,17.06
2018-07-25T06:41:40.116Z,17.09
2018-07-25T06:47:00.119Z,17.16
2018-07-25T06:49:28.997Z,17.24
2018-07-25T06:51:57.955Z,17.30
2018-07-25T06:54:32.216Z,17.37
2018-07-25T06:57:11.070Z,17.38
2018-07-25T06:59:47.071Z,17.50
2018-07-25T07:02:24.089Z,17.56
2018-07-25T07:04:53.065Z,17.63
2018-07-25T07:07:22.105Z,17.71
2018-07-25T07:09:51.001Z,17.79
2018-07-25T07:12:39.949Z,17.84
2018-07-25T07:18:12.578Z,17.97
2018-07-25T07:20:41.735Z,18.03
2018-07-25T07:23:11.698Z,18.11
2018-07-25T07:25:40.672Z,18.18
2018-07-25T07:28:10.243Z,18.23
2018-07-25T07:39:48.443Z,18.35
2018-07-25T07:42:17.374Z,18.37
2018-07-25T07:44:46.518Z,18.41
2018-07-25T07:47:16.909Z,18.46
2018-07-25T07:49:51.993Z,18.52
2018-07-25T07:52:23.508Z,18.57
2018-07-25T07:54:52.381Z,18.61
2018-07-25T07:57:21.187Z,18.65
2018-07-25T07:59:50.094Z,18.72
2018-07-25T08:02:19.097Z,18.76
2018-07-25T08:05:03.215Z,18.79
2018-07-25T08:07:40.705Z,18.84
2018-07-25T08:10:35.429Z,18.89
2018-07-25T08:13:04.168Z,18.94
2018-07-25T08:15:33.068Z,18.99
2018-07-25T08:18:01.979Z,19.03
2018-07-25T08:20:31.111Z,19.09
2018-07-25T08:23:03.604Z,19.14
2018-07-25T08:35:35.463Z,19.42
2018-07-25T09:27:06.297Z,20.45
2018-07-25T09:29:49.236Z,20.55
2018-07-25T09:44:44.888Z,20.79
2018-07-25T10:00:55.739Z,20.92
2018-07-25T10:03:25.504Z,20.91
2018-07-25T10:18:05.624Z,20.91
2018-07-25T10:20:35.071Z,20.98
2018-07-25T10:35:16.618Z,21.34
2018-07-25T10:37:47.581Z,21.39
2018-07-25T10:52:34.356Z,21.64
2018-07-25T10:55:13.304Z,21.72
2018-07-25T10:57:47.035Z,21.77
2018-07-25T11:09:16.406Z,22.14
2018-07-25T11:11:45.366Z,22.19
2018-07-25T11:14:14.557Z,22.25
2018-07-25T11:17:00.345Z,22.30
2018-07-25T11:25:24.615Z,22.38
2018-07-25T11:27:59.112Z,22.42
2018-07-25T11:30:28.647Z,22.48
2018-07-25T11:33:00.305Z,22.52
2018-07-25T11:44:45.529Z,22.66
2018-07-25T11:47:19.107Z,22.72
2018-07-25T12:01:39.938Z,23.05
2018-07-25T12:04:15.517Z,23.09
2018-07-25T12:19:00.859Z,23.50
2018-07-25T12:21:30.639Z,23.59
2018-07-25T12:24:00.487Z,23.73
2018-07-25T12:35:38.491Z,23.97
2018-07-25T12:38:07.927Z,24.04
2018-07-25T12:40:37.298Z,24.14
2018-07-25T12:52:14.854Z,24.45
2018-07-25T12:54:44.018Z,24.52
2018-07-25T12:57:13.226Z,24.57
2018-07-25T13:08:50.262Z,24.84
2018-07-25T13:11:19.237Z,24.97
2018-07-25T13:13:48.414Z,24.99
2018-07-25T13:16:18.919Z,24.99
2018-07-25T13:27:55.418Z,25.18
2018-07-25T13:30:24.350Z,25.18
2018-07-25T13:32:53.648Z,25.16
2018-07-25T13:44:37.659Z,25.30
2018-07-25T13:47:19.838Z,25.34
2018-07-25T13:49:49.284Z,25.43
2018-07-25T14:01:27.067Z,25.42
2018-07-25T14:03:56.566Z,25.46
2018-07-25T14:06:25.846Z,25.50
2018-07-25T14:21:04.504Z,26.01
2018-07-25T14:23:33.875Z,26.07
2018-07-25T14:37:56.238Z,26.37
2018-07-25T14:40:25.853Z,26.48
2018-07-25T14:42:55.990Z,26.46
2018-07-25T14:54:32.731Z,26.57
2018-07-25T14:57:02.787Z,26.59
2018-07-25T14:59:32.482Z,26.60
2018-07-25T15:11:09.294Z,26.93
2018-07-25T15:13:38.428Z,26.93
2018-07-25T15:16:07.574Z,26.99
2018-07-25T15:30:48.040Z,27.54
2018-07-25T15:33:21.171Z,27.63
2018-07-25T15:35:50.327Z,27.77
2018-07-25T15:47:31.111Z,28.12
2018-07-25T15:50:01.526Z,28.27
2018-07-25T15:52:31.577Z,28.40
2018-07-25T15:55:01.147Z,28.60
2018-07-25T16:06:39.803Z,29.37
2018-07-25T16:09:10.610Z,29.56
2018-07-25T16:11:40.435Z,29.83
2018-07-25T16:23:40.289Z,30.20
2018-07-25T16:26:09.298Z,30.41
2018-07-25T16:28:38.426Z,30.58
2018-07-25T16:31:08.683Z,30.77
2018-07-25T16:42:49.172Z,31.19
2018-07-25T16:45:18.119Z,31.21
2018-07-25T16:47:47.266Z,31.27
2018-07-25T16:50:17.190Z,31.25
2018-07-25T17:01:55.714Z,31.48
2018-07-25T17:04:24.654Z,31.59
2018-07-25T17:06:58.913Z,31.54
2018-07-25T17:24:30.839Z,30.88
2018-07-25T17:26:59.946Z,30.81
2018-07-25T17:29:29.157Z,30.80
2018-07-25T17:41:07.225Z,30.27
2018-07-25T17:43:36.591Z,30.31
2018-07-25T17:46:05.615Z,30.31
2018-07-25T17:48:34.828Z,30.34
2018-07-25T18:03:16.116Z,30.15
2018-07-25T18:05:45.098Z,30.09
2018-07-25T18:08:14.135Z,30.18
2018-07-25T18:25:57.799Z,29.98
2018-07-25T18:28:26.812Z,29.92
2018-07-25T18:30:55.868Z,29.95
2018-07-25T18:45:26.293Z,29.74
2018-07-25T18:47:55.330Z,29.80
2018-07-25T18:50:25.206Z,29.83
2018-07-25T19:08:08.778Z,27.78
2018-07-25T19:10:37.742Z,27.34
2018-07-25T19:13:12.132Z,26.90
2018-07-25T19:30:43.831Z,24.80
2018-07-25T19:33:13.445Z,24.54
2018-07-25T19:47:43.390Z,23.49
2018-07-25T19:50:12.303Z,23.35
2018-07-25T19:52:41.284Z,23.20
2018-07-25T20:04:17.551Z,22.68
2018-07-25T20:06:46.470Z,22.59
2018-07-25T20:09:15.391Z,22.49
2018-07-25T20:20:55.162Z,22.09
2018-07-25T20:23:24.105Z,21.97
2018-07-25T20:25:53.077Z,21.85
2018-07-25T20:28:22.189Z,21.78
2018-07-25T20:39:59.292Z,21.26
2018-07-25T20:42:28.647Z,21.16
2018-07-25T20:44:57.967Z,21.09
2018-07-25T20:56:34.703Z,20.77
2018-07-25T20:59:03.724Z,20.65
2018-07-25T21:01:32.691Z,20.56
2018-07-25T21:04:08.371Z,20.50
2018-07-25T21:09:51.366Z,20.44
2018-07-25T21:12:40.248Z,20.38
2018-07-25T21:15:09.478Z,20.28
2018-07-25T21:17:38.438Z,20.18
2018-07-25T21:20:07.429Z,20.15
2018-07-25T21:22:36.470Z,20.12
2018-07-25T21:25:24.722Z,20.02
2018-07-25T21:28:00.482Z,19.94
2018-07-25T21:30:37.163Z,19.92
2018-07-25T21:33:17.049Z,19.88
2018-07-25T21:35:45.937Z,19.83
2018-07-25T21:38:14.867Z,19.82
2018-07-25T21:40:43.805Z,19.81
2018-07-25T21:43:20.437Z,19.79
2018-07-25T21:45:56.223Z,19.77
2018-07-25T21:48:29.569Z,19.74
2018-07-25T21:51:07.880Z,19.71
2018-07-25T21:53:44.691Z,19.68
2018-07-25T21:56:13.597Z,19.67
2018-07-25T21:58:42.521Z,19.65
2018-07-25T22:01:17.660Z,19.63
2018-07-25T22:03:51.555Z,19.60
2018-07-25T22:06:25.552Z,19.58
2018-07-25T22:09:00.387Z,19.55
2018-07-25T22:11:39.477Z,19.50
2018-07-25T22:14:15.483Z,19.46
2018-07-25T22:16:44.346Z,19.40
2018-07-25T22:19:13.202Z,19.31
2018-07-25T22:21:42.166Z,19.25
2018-07-25T22:24:15.480Z,19.18
2018-07-25T22:29:28.572Z,19.09
2018-07-25T22:32:07.418Z,19.03
2018-07-25T22:34:40.069Z,18.94
2018-07-25T22:37:09.134Z,18.84
2018-07-25T22:39:38.191Z,18.81
2018-07-25T22:42:08.646Z,18.77
2018-07-25T22:47:23.214Z,18.68
2018-07-25T22:50:00.970Z,18.65
2018-07-25T22:52:36.355Z,18.55
2018-07-25T22:55:17.182Z,18.48
2018-07-25T22:57:46.279Z,18.39
2018-07-25T23:00:15.122Z,18.36
2018-07-25T23:02:44.143Z,18.27
2018-07-25T23:05:20.288Z,18.24
2018-07-25T23:07:59.685Z,18.22
2018-07-25T23:10:32.698Z,18.16
2018-07-25T23:13:08.550Z,18.04
2018-07-25T23:15:43.280Z,18.00
2018-07-25T23:18:20.373Z,17.97
2018-07-25T23:20:50.488Z,17.95
2018-07-25T23:23:20.050Z,17.92
2018-07-25T23:25:49.095Z,17.89
2018-07-25T23:28:24.445Z,17.88
2018-07-25T23:31:04.167Z,17.87
2018-07-25T23:33:36.233Z,17.83
2018-07-25T23:36:12.346Z,17.80
2018-07-25T23:38:47.686Z,17.75
2018-07-25T23:41:16.530Z,17.73
2018-07-25T23:43:45.317Z,17.74
2018-07-25T23:46:15.026Z,17.74
2018-07-25T23:48:45.600Z,17.74
2018-07-25T23:51:17.050Z,17.77
2018-07-25T23:53:48.392Z,17.76
2018-07-25T23:56:32.962Z,17.72
2018-07-25T23:59:01.971Z,17.69
